createdAt,value
2018-03-27T00:00:03.713Z,30.05
2018-03-27T00:01:06.233Z,28.62
2018-03-27T00:02:09.517Z,29.80
2018-03-27T00:03:12.840Z,26.73
2018-03-27T00:04:15.369Z,29.37
2018-03-27T00:05:18.684Z,29.02
2018-03-27T00:06:21.203Z,27.48
2018-03-27T00:07:23.735Z,27.95
2018-03-27T00:08:26.298Z,32.63
2018-03-27T00:09:28.845Z,30.15
2018-03-27T00:10:31.376Z,28.45
2018-03-27T00:11:33.935Z,32.40
2018-03-27T00:12:37.262Z,33.75
2018-03-27T00:13:39.790Z,29.52
2018-03-27T00:14:42.315Z,35.95
2018-03-27T00:15:44.829Z,31.98
2018-03-27T00:16:47.351Z,29.75
2018-03-27T00:17:49.905Z,25.80
2018-03-27T00:18:52.421Z,34.05
2018-03-27T00:19:54.938Z,27.40
2018-03-27T00:20:57.458Z,28.98
2018-03-27T00:22:00.762Z,29.37
2018-03-27T00:23:03.330Z,42.15
2018-03-27T00:24:05.889Z,25.27
2018-03-27T00:25:09.180Z,31.05
2018-03-27T00:26:11.706Z,29.60
2018-03-27T00:27:13.737Z,28.62
2018-03-27T00:28:28.089Z,30.70
2018-03-27T00:29:43.213Z,28.08
2018-03-27T00:30:57.578Z,28.20
2018-03-27T00:32:11.926Z,36.20
2018-03-27T00:33:26.425Z,27.45
2018-03-27T00:34:41.574Z,34.70
2018-03-27T00:35:56.721Z,30.45
2018-03-27T00:37:11.088Z,30.77
2018-03-27T00:38:26.050Z,27.83
2018-03-27T00:39:40.470Z,32.13
2018-03-27T00:40:43.282Z,29.80
2018-03-27T00:43:35.492Z,27.08
2018-03-27T00:44:38.022Z,28.87
2018-03-27T00:45:40.540Z,28.23
2018-03-27T00:46:43.829Z,35.83
2018-03-27T00:47:46.390Z,28.92
2018-03-27T00:48:49.672Z,29.60
2018-03-27T00:49:52.962Z,30.35
2018-03-27T00:50:55.481Z,26.35
2018-03-27T00:51:58.014Z,25.70
2018-03-27T00:53:00.571Z,28.12
2018-03-27T00:54:03.124Z,27.73
2018-03-27T00:55:06.412Z,30.65
2018-03-27T00:56:08.952Z,28.73
2018-03-27T00:57:11.482Z,32.92
2018-03-27T00:58:14.069Z,28.55
2018-03-27T00:59:16.642Z,35.10
2018-03-27T01:00:19.160Z,30.12
2018-03-27T01:01:21.689Z,34.05
2018-03-27T01:02:24.979Z,31.20
2018-03-27T01:03:28.333Z,32.20
2018-03-27T01:04:30.853Z,28.98
2018-03-27T01:05:33.372Z,27.62
2018-03-27T01:06:35.893Z,27.90
2018-03-27T01:07:38.421Z,28.30
2018-03-27T01:08:41.744Z,32.33
2018-03-27T01:09:44.360Z,30.73
2018-03-27T01:10:46.938Z,31.20
2018-03-27T01:11:49.563Z,25.10
2018-03-27T01:12:52.088Z,30.23
2018-03-27T01:13:55.373Z,27.73
2018-03-27T01:14:58.670Z,32.75
2018-03-27T01:16:01.223Z,32.45
2018-03-27T01:17:04.556Z,28.27
2018-03-27T01:18:07.084Z,34.20
2018-03-27T01:19:09.599Z,32.35
2018-03-27T01:20:12.131Z,34.80
2018-03-27T01:21:14.665Z,35.03
2018-03-27T01:22:17.993Z,36.70
2018-03-27T01:23:20.559Z,33.42
2018-03-27T01:24:23.078Z,36.72
2018-03-27T01:25:26.384Z,32.13
2018-03-27T01:26:28.911Z,37.17
2018-03-27T01:27:31.475Z,32.42
2018-03-27T01:28:33.996Z,34.08
2018-03-27T01:29:36.519Z,33.33
2018-03-27T01:30:39.042Z,33.00
2018-03-27T01:31:41.572Z,32.00
2018-03-27T01:32:44.896Z,28.70
2018-03-27T01:33:47.429Z,30.75
2018-03-27T01:34:49.955Z,28.02
2018-03-27T01:35:52.479Z,32.88
2018-03-27T01:36:55.070Z,31.30
2018-03-27T01:37:57.630Z,25.50
2018-03-27T01:39:00.180Z,32.03
2018-03-27T01:40:02.714Z,30.70
2018-03-27T01:41:06.013Z,34.25
2018-03-27T01:42:08.550Z,39.85
2018-03-27T01:43:11.100Z,32.38
2018-03-27T01:44:13.755Z,33.60
2018-03-27T01:45:16.284Z,32.67
2018-03-27T01:46:18.839Z,34.63
2018-03-27T01:47:21.372Z,33.33
2018-03-27T01:48:23.926Z,32.20
2018-03-27T01:49:26.492Z,36.78
2018-03-27T01:50:29.006Z,28.77
2018-03-27T01:51:31.534Z,31.75
2018-03-27T01:52:34.076Z,36.45
2018-03-27T01:53:36.596Z,33.17
2018-03-27T01:54:39.921Z,35.03
2018-03-27T01:55:42.461Z,43.03
2018-03-27T01:56:45.002Z,37.80
2018-03-27T01:57:48.293Z,32.97
2018-03-27T01:58:51.578Z,35.40
2018-03-27T01:59:54.897Z,35.95
2018-03-27T02:00:57.417Z,39.47
2018-03-27T02:01:59.940Z,36.00
2018-03-27T02:03:02.474Z,36.65
2018-03-27T02:04:05.074Z,35.17
2018-03-27T02:05:07.611Z,34.30
2018-03-27T02:06:10.177Z,34.55
2018-03-27T02:07:12.742Z,37.13
2018-03-27T02:08:15.384Z,30.37
2018-03-27T02:09:18.684Z,41.47
2018-03-27T02:10:21.218Z,40.08
2018-03-27T02:11:29.393Z,35.60
2018-03-27T02:12:37.566Z,35.72
2018-03-27T02:13:45.726Z,34.25
2018-03-27T02:14:53.844Z,35.45
2018-03-27T02:16:02.724Z,36.83
2018-03-27T02:17:10.836Z,34.10
2018-03-27T02:18:18.961Z,35.00
2018-03-27T02:19:27.135Z,33.17
2018-03-27T02:20:36.025Z,35.60
2018-03-27T02:21:38.057Z,36.42
2018-03-27T02:22:42.199Z,35.13
2018-03-27T02:24:53.691Z,30.70
2018-03-27T02:25:57.004Z,31.87
2018-03-27T02:26:59.531Z,35.00
2018-03-27T02:28:02.056Z,33.42
2018-03-27T02:29:05.349Z,37.40
2018-03-27T02:30:07.907Z,34.08
2018-03-27T02:31:10.434Z,37.10
2018-03-27T02:32:13.733Z,33.53
2018-03-27T02:33:16.263Z,30.92
2018-03-27T02:34:18.797Z,35.85
2018-03-27T02:35:21.359Z,34.30
2018-03-27T02:36:23.877Z,36.60
2018-03-27T02:37:27.168Z,31.85
2018-03-27T02:38:30.462Z,34.60
2018-03-27T02:39:32.990Z,34.88
2018-03-27T02:40:35.544Z,34.85
2018-03-27T02:41:38.090Z,33.63
2018-03-27T02:42:40.643Z,31.42
2018-03-27T02:43:43.202Z,37.53
2018-03-27T02:44:45.722Z,36.47
2018-03-27T02:45:48.907Z,36.42
2018-03-27T02:46:51.441Z,35.58
2018-03-27T02:47:53.962Z,35.58
2018-03-27T02:48:57.258Z,34.15
2018-03-27T02:49:59.812Z,34.10
2018-03-27T02:51:03.115Z,36.85
2018-03-27T02:52:05.643Z,32.22
2018-03-27T02:53:08.171Z,33.13
2018-03-27T02:54:10.697Z,35.83
2018-03-27T02:55:13.263Z,34.15
2018-03-27T02:56:16.545Z,30.52
2018-03-27T02:57:19.873Z,38.10
2018-03-27T02:58:22.400Z,34.28
2018-03-27T02:59:24.933Z,37.85
2018-03-27T03:00:27.498Z,40.53
2018-03-27T03:01:30.021Z,35.83
2018-03-27T03:02:32.549Z,32.80
2018-03-27T03:03:35.844Z,35.72
2018-03-27T03:05:47.988Z,30.98
2018-03-27T03:06:50.510Z,36.08
2018-03-27T03:07:53.796Z,34.53
2018-03-27T03:08:57.090Z,31.08
2018-03-27T03:09:59.610Z,29.12
2018-03-27T03:11:02.180Z,33.22
2018-03-27T03:12:04.742Z,33.90
2018-03-27T03:13:07.314Z,39.70
2018-03-27T03:14:09.843Z,32.22
2018-03-27T03:15:12.377Z,37.20
2018-03-27T03:16:14.977Z,36.13
2018-03-27T03:17:17.500Z,34.10
2018-03-27T03:18:20.822Z,32.58
2018-03-27T03:19:23.355Z,37.88
2018-03-27T03:20:26.643Z,37.80
2018-03-27T03:21:29.970Z,32.53
2018-03-27T03:22:32.486Z,31.75
2018-03-27T03:23:35.811Z,31.15
2018-03-27T03:24:38.339Z,36.13
2018-03-27T03:25:41.627Z,37.45
2018-03-27T03:26:44.153Z,35.63
2018-03-27T03:27:46.699Z,34.45
2018-03-27T03:28:49.306Z,33.60
2018-03-27T03:29:52.633Z,38.17
2018-03-27T03:30:55.198Z,33.88
2018-03-27T03:31:57.729Z,29.20
2018-03-27T03:33:00.249Z,32.15
2018-03-27T03:34:02.782Z,28.80
2018-03-27T03:35:05.314Z,38.80
2018-03-27T03:36:07.878Z,36.08
2018-03-27T03:37:10.409Z,38.60
2018-03-27T03:38:12.943Z,36.35
2018-03-27T03:39:16.244Z,34.35
2018-03-27T03:40:18.760Z,39.42
2018-03-27T03:41:21.318Z,33.78
2018-03-27T03:42:23.879Z,36.15
2018-03-27T03:43:26.405Z,37.55
2018-03-27T03:44:28.936Z,38.33
2018-03-27T03:45:31.462Z,39.88
2018-03-27T03:46:34.029Z,37.33
2018-03-27T03:47:36.548Z,34.05
2018-03-27T03:48:39.834Z,36.92
2018-03-27T03:49:43.126Z,34.42
2018-03-27T03:50:45.655Z,38.70
2018-03-27T03:51:48.241Z,34.90
2018-03-27T03:52:51.524Z,35.67
2018-03-27T03:53:54.814Z,32.65
2018-03-27T03:54:58.108Z,35.85
2018-03-27T03:56:01.398Z,32.88
2018-03-27T03:57:03.950Z,34.97
2018-03-27T03:58:07.229Z,36.42
2018-03-27T03:59:10.510Z,37.13
2018-03-27T04:00:13.811Z,37.90
2018-03-27T04:01:17.099Z,41.95
2018-03-27T04:02:19.663Z,43.05
2018-03-27T04:03:22.187Z,38.00
2018-03-27T04:04:24.754Z,36.22
2018-03-27T04:05:27.275Z,38.38
2018-03-27T04:06:29.791Z,38.13
2018-03-27T04:07:32.317Z,37.20
2018-03-27T04:08:34.833Z,39.90
2018-03-27T04:09:37.399Z,36.40
2018-03-27T04:10:39.931Z,34.38
2018-03-27T04:11:42.454Z,40.08
2018-03-27T04:12:44.981Z,38.47
2018-03-27T04:13:47.499Z,35.90
2018-03-27T04:14:50.049Z,34.63
2018-03-27T04:15:52.568Z,38.63
2018-03-27T04:16:55.097Z,37.90
2018-03-27T04:17:57.618Z,32.75
2018-03-27T04:19:00.146Z,36.88
2018-03-27T04:20:02.704Z,34.90
2018-03-27T04:21:05.238Z,38.67
2018-03-27T04:22:08.557Z,37.85
2018-03-27T04:23:11.091Z,39.13
2018-03-27T04:24:14.377Z,34.65
2018-03-27T04:25:17.673Z,34.92
2018-03-27T04:26:20.188Z,36.20
2018-03-27T04:27:22.737Z,35.42
2018-03-27T04:28:25.257Z,39.88
2018-03-27T04:29:28.577Z,34.42
2018-03-27T04:30:31.094Z,42.80
2018-03-27T04:31:34.381Z,38.17
2018-03-27T04:32:37.666Z,35.47
2018-03-27T04:33:41.025Z,30.73
2018-03-27T04:34:43.542Z,39.55
2018-03-27T04:35:46.070Z,34.25
2018-03-27T04:36:48.592Z,33.88
2018-03-27T04:37:51.104Z,37.28
2018-03-27T04:38:53.874Z,32.22
2018-03-27T04:39:56.463Z,35.15
2018-03-27T04:40:59.758Z,33.15
2018-03-27T04:42:02.283Z,33.03
2018-03-27T04:43:04.800Z,38.65
2018-03-27T04:44:07.321Z,36.53
2018-03-27T04:45:10.665Z,37.67
2018-03-27T04:46:13.196Z,35.72
2018-03-27T04:47:16.483Z,40.65
2018-03-27T04:48:19.805Z,36.95
2018-03-27T04:49:22.325Z,36.53
2018-03-27T04:50:25.614Z,37.45
2018-03-27T04:51:28.933Z,38.80
2018-03-27T04:52:31.472Z,34.60
2018-03-27T04:53:33.998Z,33.45
2018-03-27T04:54:36.561Z,41.03
2018-03-27T04:55:39.082Z,44.47
2018-03-27T04:56:41.621Z,39.97
2018-03-27T04:57:44.942Z,40.22
2018-03-27T04:58:47.537Z,42.30
2018-03-27T04:59:50.061Z,40.17
2018-03-27T05:00:52.581Z,37.95
2018-03-27T05:01:55.114Z,39.47
2018-03-27T05:02:57.633Z,39.33
2018-03-27T05:04:00.950Z,38.85
2018-03-27T05:05:03.479Z,36.78
2018-03-27T05:06:06.768Z,47.42
2018-03-27T05:07:10.126Z,46.97
2018-03-27T05:08:12.653Z,35.10
2018-03-27T05:09:15.220Z,39.38
2018-03-27T05:10:17.801Z,34.65
2018-03-27T05:11:20.323Z,40.30
2018-03-27T05:12:23.613Z,44.08
2018-03-27T05:13:26.904Z,43.38
2018-03-27T05:14:29.429Z,53.22
2018-03-27T05:15:31.994Z,45.47
2018-03-27T05:16:34.515Z,43.08
2018-03-27T05:17:37.036Z,51.20
2018-03-27T05:18:39.562Z,42.62
2018-03-27T05:19:42.113Z,45.55
2018-03-27T05:20:44.674Z,52.78
2018-03-27T05:21:47.190Z,45.72
2018-03-27T05:22:49.724Z,44.05
2018-03-27T05:23:52.243Z,47.08
2018-03-27T05:24:54.781Z,51.63
2018-03-27T05:25:57.342Z,43.47
2018-03-27T05:26:59.861Z,49.22
2018-03-27T05:29:11.544Z,46.05
2018-03-27T05:30:14.105Z,43.15
2018-03-27T05:31:16.629Z,50.88
2018-03-27T05:32:19.149Z,50.63
2018-03-27T05:33:21.668Z,47.65
2018-03-27T05:34:24.307Z,50.45
2018-03-27T05:35:26.829Z,48.65
2018-03-27T05:36:29.377Z,45.30
2018-03-27T05:37:31.897Z,44.90
2018-03-27T05:38:34.424Z,49.85
2018-03-27T05:39:37.740Z,54.50
2018-03-27T05:40:40.257Z,52.22
2018-03-27T05:41:42.790Z,46.17
2018-03-27T05:42:45.314Z,49.90
2018-03-27T05:43:47.860Z,48.67
2018-03-27T05:44:50.421Z,44.97
2018-03-27T05:45:52.975Z,49.03
2018-03-27T05:46:55.488Z,45.17
2018-03-27T05:47:58.786Z,47.00
2018-03-27T05:49:01.309Z,47.97
2018-03-27T05:50:03.882Z,48.25
2018-03-27T05:51:06.407Z,47.92
2018-03-27T05:52:08.922Z,70.53
2018-03-27T05:53:12.213Z,43.40
2018-03-27T05:54:15.512Z,40.63
2018-03-27T05:55:18.074Z,44.13
2018-03-27T05:56:20.590Z,42.45
2018-03-27T05:57:23.115Z,33.42
2018-03-27T05:58:25.636Z,40.75
2018-03-27T05:59:28.157Z,43.92
2018-03-27T06:00:30.722Z,40.12
2018-03-27T06:01:33.264Z,49.30
2018-03-27T06:02:36.556Z,49.05
2018-03-27T06:03:39.085Z,41.63
2018-03-27T06:04:41.627Z,39.58
2018-03-27T06:05:44.199Z,43.67
2018-03-27T06:06:46.719Z,46.83
2018-03-27T06:07:49.305Z,43.25
2018-03-27T06:08:51.846Z,46.65
2018-03-27T06:09:55.150Z,43.85
2018-03-27T06:10:57.668Z,40.88
2018-03-27T06:12:00.190Z,51.95
2018-03-27T06:13:02.748Z,47.50
2018-03-27T06:14:05.269Z,50.47
2018-03-27T06:16:16.797Z,42.05
2018-03-27T06:17:19.319Z,52.58
2018-03-27T06:18:22.678Z,50.83
2018-03-27T06:19:25.217Z,46.42
2018-03-27T06:20:27.741Z,42.40
2018-03-27T06:21:30.275Z,44.95
2018-03-27T06:22:32.810Z,46.80
2018-03-27T06:23:35.369Z,45.08
2018-03-27T06:24:37.894Z,49.05
2018-03-27T06:25:40.423Z,50.58
2018-03-27T06:26:42.945Z,53.38
2018-03-27T06:27:46.229Z,53.33
2018-03-27T06:28:49.561Z,51.80
2018-03-27T06:29:52.080Z,53.10
2018-03-27T06:30:55.394Z,55.00
2018-03-27T06:31:57.954Z,53.33
2018-03-27T06:33:00.486Z,52.53
2018-03-27T06:34:03.018Z,44.35
2018-03-27T06:35:06.311Z,49.35
2018-03-27T06:36:08.892Z,43.75
2018-03-27T06:37:11.438Z,45.10
2018-03-27T06:38:14.006Z,45.08
2018-03-27T06:39:16.544Z,47.03
2018-03-27T06:40:19.064Z,47.78
2018-03-27T06:41:21.595Z,50.00
2018-03-27T06:42:24.143Z,45.47
2018-03-27T06:43:26.710Z,46.53
2018-03-27T06:44:29.244Z,47.90
2018-03-27T06:45:32.536Z,42.45
2018-03-27T06:46:35.824Z,42.53
2018-03-27T06:47:38.370Z,47.90
2018-03-27T06:48:40.923Z,45.47
2018-03-27T06:49:43.448Z,43.72
2018-03-27T06:50:45.981Z,41.65
2018-03-27T06:51:49.309Z,41.97
2018-03-27T06:52:51.850Z,45.88
2018-03-27T06:53:54.377Z,43.80
2018-03-27T06:54:56.905Z,46.13
2018-03-27T06:55:59.469Z,42.72
2018-03-27T06:57:01.997Z,44.40
2018-03-27T06:58:05.280Z,41.88
2018-03-27T06:59:08.608Z,45.05
2018-03-27T07:00:11.157Z,48.38
2018-03-27T07:01:13.682Z,46.28
2018-03-27T07:02:16.212Z,45.67
2018-03-27T07:03:18.820Z,44.08
2018-03-27T07:04:22.154Z,46.85
2018-03-27T07:05:24.773Z,44.83
2018-03-27T07:06:27.239Z,43.65
2018-03-27T07:07:29.769Z,48.55
2018-03-27T07:08:32.410Z,51.13
2018-03-27T07:09:34.969Z,45.72
2018-03-27T07:10:37.516Z,39.83
2018-03-27T07:11:40.067Z,52.33
2018-03-27T07:12:42.591Z,42.72
2018-03-27T07:13:45.145Z,44.08
2018-03-27T07:14:47.711Z,45.63
2018-03-27T07:15:50.980Z,44.70
2018-03-27T07:16:53.544Z,44.80
2018-03-27T07:17:56.071Z,41.97
2018-03-27T07:18:58.592Z,46.78
2018-03-27T07:20:01.161Z,46.08
2018-03-27T07:21:03.690Z,45.90
2018-03-27T07:22:07.021Z,49.25
2018-03-27T07:23:09.554Z,48.53
2018-03-27T07:24:12.849Z,54.83
2018-03-27T07:25:15.374Z,43.05
2018-03-27T07:26:17.945Z,47.38
2018-03-27T07:27:20.490Z,54.05
2018-03-27T07:28:23.014Z,48.40
2018-03-27T07:29:25.537Z,48.72
2018-03-27T07:30:28.102Z,42.25
2018-03-27T07:31:30.628Z,49.25
2018-03-27T07:32:33.200Z,46.58
2018-03-27T07:33:35.727Z,46.72
2018-03-27T07:34:39.016Z,50.85
2018-03-27T07:35:42.346Z,50.83
2018-03-27T07:36:44.889Z,53.87
2018-03-27T07:37:47.426Z,49.15
2018-03-27T07:38:49.973Z,47.22
2018-03-27T07:39:52.527Z,47.65
2018-03-27T07:40:55.051Z,47.22
2018-03-27T07:41:57.625Z,45.33
2018-03-27T07:43:00.183Z,46.50
2018-03-27T07:44:02.701Z,43.90
2018-03-27T07:45:05.219Z,45.90
2018-03-27T07:46:07.745Z,42.45
2018-03-27T07:47:10.314Z,45.72
2018-03-27T07:48:12.860Z,51.10
2018-03-27T07:49:15.386Z,49.65
2018-03-27T07:50:17.913Z,48.95
2018-03-27T07:51:21.212Z,48.85
2018-03-27T07:52:24.534Z,47.08
2018-03-27T07:53:27.109Z,50.58
2018-03-27T07:54:29.642Z,48.92
2018-03-27T07:55:32.177Z,45.67
2018-03-27T07:56:35.487Z,44.88
2018-03-27T07:57:38.006Z,50.17
2018-03-27T07:58:40.576Z,52.62
2018-03-27T07:59:43.118Z,46.15
2018-03-27T08:00:45.651Z,45.45
2018-03-27T08:01:48.173Z,51.55
2018-03-27T08:02:50.689Z,43.47
2018-03-27T08:03:53.269Z,45.58
2018-03-27T08:04:55.805Z,60.58
2018-03-27T08:05:59.095Z,40.92
2018-03-27T08:07:02.391Z,45.90
2018-03-27T08:08:04.915Z,46.92
2018-03-27T08:09:07.998Z,51.13
2018-03-27T08:10:10.527Z,50.72
2018-03-27T08:11:13.110Z,53.20
2018-03-27T08:12:15.623Z,48.80
2018-03-27T08:13:18.158Z,45.50
2018-03-27T08:14:20.740Z,50.88
2018-03-27T08:15:23.257Z,47.47
2018-03-27T08:16:25.784Z,48.53
2018-03-27T08:17:28.302Z,46.47
2018-03-27T08:18:30.872Z,48.97
2018-03-27T08:19:33.422Z,46.58
2018-03-27T08:20:35.946Z,47.25
2018-03-27T08:21:39.280Z,49.05
2018-03-27T08:22:41.804Z,52.62
2018-03-27T08:23:45.096Z,51.88
2018-03-27T08:24:48.413Z,56.03
2018-03-27T08:25:50.962Z,44.72
2018-03-27T08:26:53.490Z,49.53
2018-03-27T08:27:56.826Z,53.87
2018-03-27T08:28:59.340Z,50.17
2018-03-27T08:30:02.641Z,49.35
2018-03-27T08:31:05.166Z,59.22
2018-03-27T08:32:07.697Z,49.40
2018-03-27T08:33:10.266Z,51.97
2018-03-27T08:34:12.785Z,50.47
2018-03-27T08:35:16.091Z,45.45
2018-03-27T08:36:18.789Z,57.95
2018-03-27T08:37:21.290Z,50.47
2018-03-27T08:38:23.812Z,46.72
2018-03-27T08:39:26.349Z,50.08
2018-03-27T08:40:29.645Z,50.65
2018-03-27T08:41:32.218Z,53.42
2018-03-27T08:42:34.748Z,53.40
2018-03-27T08:43:37.313Z,52.40
2018-03-27T08:44:39.849Z,49.03
2018-03-27T08:45:42.383Z,52.30
2018-03-27T08:46:44.901Z,46.80
2018-03-27T08:47:47.421Z,50.67
2018-03-27T08:48:50.089Z,50.30
2018-03-27T08:49:52.617Z,51.37
2018-03-27T08:50:55.146Z,49.40
2018-03-27T08:51:57.662Z,51.53
2018-03-27T08:53:00.190Z,53.03
2018-03-27T08:54:02.789Z,49.67
2018-03-27T08:55:06.091Z,48.13
2018-03-27T08:56:08.623Z,48.33
2018-03-27T08:57:11.148Z,57.38
2018-03-27T08:58:13.674Z,55.95
2018-03-27T08:59:16.999Z,51.03
2018-03-27T09:00:19.510Z,59.45
2018-03-27T09:01:22.032Z,53.03
2018-03-27T09:02:24.557Z,55.63
2018-03-27T09:03:27.849Z,54.30
2018-03-27T09:04:31.170Z,45.78
2018-03-27T09:05:33.698Z,51.15
2018-03-27T09:06:37.032Z,64.10
2018-03-27T09:07:39.558Z,55.95
2018-03-27T09:08:42.082Z,56.08
2018-03-27T09:09:44.604Z,54.33
2018-03-27T09:10:47.131Z,56.85
2018-03-27T09:11:50.488Z,50.97
2018-03-27T09:12:53.019Z,52.58
2018-03-27T09:13:55.537Z,51.35
2018-03-27T09:14:58.085Z,61.00
2018-03-27T09:16:00.622Z,56.05
2018-03-27T09:17:03.157Z,49.63
2018-03-27T09:18:06.452Z,53.92
2018-03-27T09:19:08.994Z,45.05
2018-03-27T09:20:11.545Z,51.22
2018-03-27T09:21:14.091Z,50.05
2018-03-27T09:22:16.625Z,47.70
2018-03-27T09:23:19.188Z,46.83
2018-03-27T09:24:22.469Z,50.17
2018-03-27T09:25:25.031Z,51.95
2018-03-27T09:26:27.587Z,48.25
2018-03-27T09:27:30.885Z,50.47
2018-03-27T09:28:33.445Z,43.85
2018-03-27T09:29:36.735Z,40.00
2018-03-27T09:30:39.257Z,44.72
2018-03-27T09:31:41.820Z,37.72
2018-03-27T09:32:44.349Z,39.42
2018-03-27T09:33:46.873Z,39.15
2018-03-27T09:34:49.399Z,34.13
2018-03-27T09:35:51.914Z,29.60
2018-03-27T09:36:55.231Z,27.10
2018-03-27T09:37:57.757Z,26.45
2018-03-27T09:39:00.289Z,27.85
2018-03-27T09:40:02.807Z,26.30
2018-03-27T09:41:06.110Z,28.75
2018-03-27T09:42:08.677Z,26.30
2018-03-27T09:43:11.206Z,22.10
2018-03-27T09:44:14.496Z,26.05
2018-03-27T09:45:17.820Z,26.58
2018-03-27T09:46:20.341Z,26.15
2018-03-27T09:47:22.884Z,22.60
2018-03-27T09:48:25.412Z,27.08
2018-03-27T09:49:27.982Z,26.83
2018-03-27T09:50:30.507Z,20.48
2018-03-27T09:51:33.791Z,22.55
2018-03-27T09:52:37.230Z,26.08
2018-03-27T09:53:39.753Z,27.13
2018-03-27T09:54:43.090Z,27.58
2018-03-27T09:55:45.612Z,29.33
2018-03-27T09:56:48.143Z,27.50
2018-03-27T09:57:50.668Z,28.55
2018-03-27T09:58:53.186Z,28.55
2018-03-27T09:59:56.526Z,34.88
2018-03-27T10:00:59.056Z,30.77
2018-03-27T10:02:02.357Z,28.90
2018-03-27T10:03:04.879Z,30.70
2018-03-27T10:04:07.401Z,24.77
2018-03-27T10:05:09.958Z,29.00
2018-03-27T10:06:12.478Z,29.23
2018-03-27T10:07:14.996Z,30.88
2018-03-27T10:08:17.514Z,26.67
2018-03-27T10:09:20.112Z,31.05
2018-03-27T10:10:22.630Z,25.20
2018-03-27T10:11:25.150Z,28.45
2018-03-27T10:12:27.673Z,22.25
2018-03-27T10:13:30.231Z,29.23
2018-03-27T10:14:32.763Z,21.67
2018-03-27T10:15:35.294Z,25.85
2018-03-27T10:16:38.588Z,39.05
2018-03-27T10:17:41.130Z,34.50
2018-03-27T10:18:43.697Z,33.10
2018-03-27T10:19:47.020Z,32.15
2018-03-27T10:20:49.585Z,31.42
2018-03-27T10:21:52.114Z,27.25
2018-03-27T10:22:54.639Z,28.75
2018-03-27T10:23:57.160Z,35.35
2018-03-27T10:25:00.459Z,32.25
2018-03-27T10:26:03.021Z,32.10
2018-03-27T10:27:05.541Z,37.97
2018-03-27T10:28:08.057Z,34.95
2018-03-27T10:29:10.629Z,33.85
2018-03-27T10:30:13.154Z,31.95
2018-03-27T10:31:15.681Z,32.30
2018-03-27T10:32:18.202Z,30.88
2018-03-27T10:33:21.526Z,33.47
2018-03-27T10:34:24.059Z,40.03
2018-03-27T10:35:27.344Z,36.30
2018-03-27T10:36:30.683Z,34.83
2018-03-27T10:37:33.219Z,38.95
2018-03-27T10:38:35.782Z,39.22
2018-03-27T10:39:39.102Z,38.63
2018-03-27T10:40:41.633Z,44.20
2018-03-27T10:41:44.156Z,42.53
2018-03-27T10:42:46.690Z,37.20
2018-03-27T10:43:49.223Z,40.58
2018-03-27T10:44:51.786Z,35.10
2018-03-27T10:45:54.322Z,37.35
2018-03-27T10:46:56.860Z,34.22
2018-03-27T10:47:59.389Z,32.67
2018-03-27T10:49:01.949Z,33.38
2018-03-27T10:50:04.481Z,33.55
2018-03-27T10:51:07.040Z,33.33
2018-03-27T10:52:09.562Z,34.90
2018-03-27T10:53:12.077Z,32.65
2018-03-27T10:54:14.592Z,35.58
2018-03-27T10:55:17.109Z,33.75
2018-03-27T10:56:19.678Z,36.38
2018-03-27T10:57:22.205Z,27.80
2018-03-27T10:58:24.723Z,38.45
2018-03-27T10:59:28.002Z,35.25
2018-03-27T11:00:30.530Z,37.60
2018-03-27T11:01:33.090Z,35.35
2018-03-27T11:02:35.615Z,31.10
2018-03-27T11:03:38.962Z,32.47
2018-03-27T11:04:41.528Z,32.63
2018-03-27T11:05:44.041Z,33.05
2018-03-27T11:06:46.607Z,31.67
2018-03-27T11:07:49.167Z,30.62
2018-03-27T11:08:52.496Z,31.73
2018-03-27T11:09:55.028Z,32.03
2018-03-27T11:10:57.552Z,34.90
2018-03-27T11:12:00.089Z,28.40
2018-03-27T11:13:02.606Z,33.72
2018-03-27T11:14:05.946Z,32.00
2018-03-27T11:15:08.525Z,30.92
2018-03-27T11:16:11.054Z,34.85
2018-03-27T11:17:13.582Z,33.97
2018-03-27T11:18:16.120Z,33.30
2018-03-27T11:19:18.650Z,35.88
2018-03-27T11:20:21.213Z,31.37
2018-03-27T11:21:23.829Z,31.17
2018-03-27T11:22:26.349Z,39.15
2018-03-27T11:23:28.871Z,33.65
2018-03-27T11:24:31.397Z,33.63
2018-03-27T11:25:33.965Z,35.95
2018-03-27T11:26:36.488Z,34.85
2018-03-27T11:27:39.812Z,30.90
2018-03-27T11:28:42.329Z,33.90
2018-03-27T11:29:44.845Z,38.92
2018-03-27T11:30:47.367Z,35.15
2018-03-27T11:31:50.664Z,33.17
2018-03-27T11:32:53.997Z,37.08
2018-03-27T11:33:56.540Z,32.42
2018-03-27T11:34:59.069Z,34.08
2018-03-27T11:36:02.390Z,33.50
2018-03-27T11:37:04.920Z,32.17
2018-03-27T11:38:08.253Z,30.65
2018-03-27T11:39:10.789Z,31.33
2018-03-27T11:40:13.316Z,34.72
2018-03-27T11:41:15.843Z,32.47
2018-03-27T11:42:18.381Z,33.75
2018-03-27T11:43:20.945Z,33.50
2018-03-27T11:44:24.233Z,34.45
2018-03-27T11:45:26.762Z,30.85
2018-03-27T11:46:29.288Z,29.15
2018-03-27T11:47:31.842Z,34.47
2018-03-27T11:48:34.409Z,30.52
2018-03-27T11:49:36.949Z,33.35
2018-03-27T11:50:40.241Z,30.88
2018-03-27T11:51:43.528Z,33.45
2018-03-27T11:52:46.841Z,28.00
2018-03-27T11:53:49.434Z,33.72
2018-03-27T11:54:52.731Z,31.12
2018-03-27T11:55:55.258Z,30.60
2018-03-27T11:56:57.818Z,29.45
2018-03-27T11:58:00.351Z,30.25
2018-03-27T11:59:03.686Z,31.23
2018-03-27T12:00:06.205Z,31.58
2018-03-27T12:01:09.493Z,32.95
2018-03-27T12:02:12.791Z,29.52
2018-03-27T12:03:15.341Z,26.62
2018-03-27T12:04:18.635Z,33.15
2018-03-27T12:05:21.173Z,34.25
2018-03-27T12:06:23.698Z,33.80
2018-03-27T12:07:26.278Z,30.08
2018-03-27T12:08:28.825Z,24.30
2018-03-27T12:09:31.386Z,31.85
2018-03-27T12:10:33.908Z,27.45
2018-03-27T12:11:36.466Z,32.20
2018-03-27T12:12:39.025Z,30.12
2018-03-27T12:13:41.547Z,28.83
2018-03-27T12:14:44.142Z,31.10
2018-03-27T12:15:46.686Z,29.75
2018-03-27T12:16:49.215Z,25.75
2018-03-27T12:17:52.515Z,30.17
2018-03-27T12:18:55.049Z,29.33
2018-03-27T12:19:57.614Z,30.25
2018-03-27T12:21:00.156Z,23.85
2018-03-27T12:22:02.690Z,26.30
2018-03-27T12:23:05.290Z,26.37
2018-03-27T12:24:07.834Z,27.55
2018-03-27T12:25:10.367Z,26.08
2018-03-27T12:26:13.698Z,27.75
2018-03-27T12:27:16.229Z,28.80
2018-03-27T12:28:19.584Z,23.73
2018-03-27T12:29:22.074Z,25.48
2018-03-27T12:30:25.370Z,26.35
2018-03-27T12:31:27.947Z,23.38
2018-03-27T12:32:30.520Z,27.37
2018-03-27T12:33:33.070Z,26.35
2018-03-27T12:34:35.594Z,28.05
2018-03-27T12:35:38.118Z,24.80
2018-03-27T12:36:40.658Z,29.52
2018-03-27T12:37:43.996Z,25.08
2018-03-27T12:38:46.594Z,28.38
2018-03-27T12:39:49.121Z,25.50
2018-03-27T12:40:51.655Z,27.65
2018-03-27T12:41:54.218Z,35.45
2018-03-27T12:42:56.741Z,26.15
2018-03-27T12:43:59.278Z,29.52
2018-03-27T12:45:01.804Z,26.23
2018-03-27T12:46:05.107Z,25.17
2018-03-27T12:47:07.694Z,26.62
2018-03-27T12:48:10.220Z,25.62
2018-03-27T12:49:13.515Z,23.92
2018-03-27T12:50:16.044Z,26.10
2018-03-27T12:51:18.580Z,28.67
2018-03-27T12:52:21.158Z,24.87
2018-03-27T12:53:24.466Z,26.48
2018-03-27T12:54:27.001Z,23.20
2018-03-27T12:55:29.698Z,24.67
2018-03-27T12:56:32.224Z,28.12
2018-03-27T12:57:34.788Z,23.80
2018-03-27T12:58:37.318Z,26.62
2018-03-27T12:59:40.602Z,20.92
2018-03-27T13:00:43.924Z,26.50
2018-03-27T13:01:46.456Z,25.67
2018-03-27T13:02:49.789Z,30.70
2018-03-27T13:03:53.097Z,25.48
2018-03-27T13:04:55.667Z,24.65
2018-03-27T13:05:58.221Z,26.58
2018-03-27T13:07:00.742Z,21.75
2018-03-27T13:08:03.307Z,26.48
2018-03-27T13:09:05.841Z,25.98
2018-03-27T13:10:09.182Z,32.22
2018-03-27T13:11:11.706Z,23.42
2018-03-27T13:12:14.997Z,24.75
2018-03-27T13:13:17.526Z,20.37
2018-03-27T13:14:20.050Z,28.30
2018-03-27T13:15:22.609Z,24.45
2018-03-27T13:16:25.137Z,24.75
2018-03-27T13:17:27.666Z,26.83
2018-03-27T13:18:30.197Z,23.17
2018-03-27T13:19:32.845Z,26.25
2018-03-27T13:20:36.168Z,26.00
2018-03-27T13:21:38.702Z,25.90
2018-03-27T13:22:42.001Z,22.48
2018-03-27T13:24:53.703Z,27.48
2018-03-27T13:25:56.275Z,27.40
2018-03-27T13:26:58.841Z,23.55
2018-03-27T13:28:01.420Z,25.52
2018-03-27T13:29:03.948Z,24.33
2018-03-27T13:31:16.218Z,21.27
2018-03-27T13:32:18.853Z,26.60
2018-03-27T13:33:21.326Z,26.37
2018-03-27T13:34:23.857Z,23.62
2018-03-27T13:35:26.386Z,23.90
2018-03-27T13:36:28.923Z,28.60
2018-03-27T13:37:31.480Z,31.92
2018-03-27T13:38:34.068Z,24.23